createdAt,value
2022-12-19T00:01:57.563Z,102396.88
2022-12-19T00:04:25.549Z,102409.47
2022-12-19T00:06:53.102Z,102405.56
2022-12-19T00:09:20.969Z,102401.97
2022-12-19T00:11:49.041Z,102406.81
2022-12-19T00:14:17.439Z,102419.50
2022-12-19T00:16:45.815Z,102424.56
2022-12-19T00:19:14.099Z,102426.66
2022-12-19T00:21:42.000Z,102433.19
2022-12-19T00:24:20.901Z,102431.00
2022-12-19T00:26:50.034Z,102419.25
2022-12-19T00:29:18.148Z,102408.41
2022-12-19T00:31:46.083Z,102411.06
2022-12-19T00:34:16.187Z,102411.06
2022-12-19T00:36:43.857Z,102398.97
2022-12-19T00:39:11.972Z,102416.47
2022-12-19T00:41:42.563Z,102412.34
2022-12-19T00:44:14.776Z,102418.81
2022-12-19T00:46:42.757Z,102428.56
2022-12-19T00:49:15.468Z,102433.06
2022-12-19T00:51:43.029Z,102433.53
2022-12-19T00:54:11.108Z,102438.59
2022-12-19T00:56:39.491Z,102426.19
2022-12-19T00:59:10.798Z,102431.91
2022-12-19T01:01:42.055Z,102433.97
2022-12-19T01:04:30.781Z,102421.78
2022-12-19T01:07:01.720Z,102416.94
2022-12-19T01:09:33.996Z,102423.63
2022-12-19T01:12:24.763Z,102423.38
2022-12-19T01:14:59.481Z,102416.81
2022-12-19T01:17:43.719Z,102423.72
2022-12-19T01:20:16.749Z,102416.25
2022-12-19T01:22:46.704Z,102421.31
2022-12-19T01:25:15.321Z,102419.22
2022-12-19T01:27:42.928Z,102417.25
2022-12-19T01:30:12.473Z,102419.47
2022-12-19T01:32:41.468Z,102407.63
2022-12-19T01:35:17.358Z,102403.13
2022-12-19T01:37:55.900Z,102408.19
2022-12-19T01:40:35.037Z,102398.06
2022-12-19T01:43:03.455Z,102404.84
2022-12-19T01:45:43.542Z,102395.50
2022-12-19T01:48:20.644Z,102395.50
2022-12-19T01:51:20.042Z,102397.13
2022-12-19T01:53:57.158Z,102395.50
2022-12-19T01:56:30.769Z,102393.88
2022-12-19T01:59:06.364Z,102389.06
2022-12-19T02:01:52.094Z,102388.25
2022-12-19T02:04:30.918Z,102375.00
2022-12-19T02:07:15.274Z,102378.47
2022-12-19T02:09:50.325Z,102385.94
2022-12-19T02:12:36.595Z,102383.66
2022-12-19T02:15:07.311Z,102380.91
2022-12-19T02:17:50.162Z,102384.56
2022-12-19T02:20:30.188Z,102384.91
2022-12-19T02:23:17.907Z,102386.88
2022-12-19T02:26:37.445Z,102366.50
2022-12-19T02:29:20.959Z,102379.38
2022-12-19T02:32:14.583Z,102372.47
2022-12-19T02:35:06.021Z,102369.38
2022-12-19T02:37:45.418Z,102367.78
2022-12-19T02:40:18.509Z,102371.56
2022-12-19T02:42:56.846Z,102370.53
2022-12-19T02:45:30.156Z,102371.78
2022-12-19T02:48:05.765Z,102370.16
2022-12-19T02:50:46.803Z,102368.47
2022-12-19T02:53:23.967Z,102355.81
2022-12-19T02:56:16.385Z,102361.78
2022-12-19T02:58:58.933Z,102363.50
2022-12-19T03:05:34.047Z,102356.34
2022-12-19T03:08:07.919Z,102362.09
2022-12-19T03:10:53.432Z,102358.09
2022-12-19T03:13:38.948Z,102362.00
2022-12-19T03:16:11.189Z,102360.63
2022-12-19T03:18:40.302Z,102356.00
2022-12-19T03:21:36.412Z,102371.75
2022-12-19T03:24:07.139Z,102356.81
2022-12-19T03:27:04.387Z,102361.03
2022-12-19T03:29:47.278Z,102370.03
2022-12-19T03:32:16.789Z,102369.06
2022-12-19T03:35:06.020Z,102365.06
2022-12-19T03:37:38.402Z,102361.63
2022-12-19T03:40:21.501Z,102358.84
2022-12-19T03:43:11.248Z,102359.63
2022-12-19T03:46:22.565Z,102361.50
2022-12-19T03:48:54.022Z,102356.78
2022-12-19T03:52:00.995Z,102357.00
2022-12-19T03:54:35.037Z,102360.66
2022-12-19T03:57:30.815Z,102364.59
2022-12-19T04:00:15.318Z,102356.88
2022-12-19T04:02:50.053Z,102346.50
2022-12-19T04:05:26.515Z,102362.72
2022-12-19T04:08:07.114Z,102358.72
2022-12-19T04:10:47.355Z,102338.91
2022-12-19T04:13:23.225Z,102344.00
2022-12-19T04:16:12.087Z,102347.66
2022-12-19T04:18:45.470Z,102347.44
2022-12-19T04:21:27.997Z,102349.25
2022-12-19T04:24:04.655Z,102351.19
2022-12-19T04:26:34.433Z,102352.44
2022-12-19T04:29:08.114Z,102364.28
2022-12-19T04:31:36.642Z,102360.22
2022-12-19T04:34:04.773Z,102357.81
2022-12-19T04:36:32.691Z,102367.22
2022-12-19T04:39:00.708Z,102370.44
2022-12-19T04:41:28.314Z,102392.53
2022-12-19T04:43:56.141Z,102386.97
2022-12-19T04:46:23.645Z,102389.25
2022-12-19T04:48:51.532Z,102389.63
2022-12-19T04:51:19.102Z,102382.09
2022-12-19T04:53:47.001Z,102371.94
2022-12-19T04:56:14.746Z,102375.38
2022-12-19T04:58:42.727Z,102368.84
2022-12-19T05:01:10.748Z,102371.03
2022-12-19T05:03:38.745Z,102362.66
2022-12-19T05:06:14.606Z,102348.41
2022-12-19T05:08:44.362Z,102347.13
2022-12-19T05:11:19.450Z,102343.25
2022-12-19T05:13:50.114Z,102348.31
2022-12-19T05:16:18.350Z,102342.19
2022-12-19T05:18:46.444Z,102344.63
2022-12-19T05:21:14.165Z,102341.75
2022-12-19T05:23:42.318Z,102347.03
2022-12-19T05:26:12.638Z,102344.97
2022-12-19T05:28:40.532Z,102351.91
2022-12-19T05:31:20.485Z,102349.25
2022-12-19T05:33:49.495Z,102353.75
2022-12-19T05:36:18.775Z,102356.03
2022-12-19T05:38:46.747Z,102353.59
2022-12-19T05:41:17.772Z,102349.22
2022-12-19T05:43:50.029Z,102361.41
2022-12-19T05:46:18.036Z,102359.44
2022-12-19T05:48:45.937Z,102368.84
2022-12-19T05:51:14.024Z,102371.94
2022-12-19T05:53:42.641Z,102382.97
2022-12-19T05:56:14.029Z,102377.09
2022-12-19T05:58:42.998Z,102386.47
2022-12-19T06:01:19.252Z,102366.81
2022-12-19T06:03:47.816Z,102370.25
2022-12-19T06:06:22.366Z,102363.00
2022-12-19T06:09:00.108Z,102377.03
2022-12-19T06:11:28.076Z,102376.97
2022-12-19T06:13:55.937Z,102377.53
2022-12-19T06:16:24.423Z,102378.09
2022-12-19T06:18:52.371Z,102377.53
2022-12-19T06:21:22.809Z,102380.63
2022-12-19T06:23:51.298Z,102381.81
2022-12-19T06:26:21.045Z,102384.34
2022-12-19T06:28:51.806Z,102385.75
2022-12-19T06:31:22.064Z,102385.31
2022-12-19T06:33:50.909Z,102389.53
2022-12-19T06:36:31.331Z,102370.00
2022-12-19T06:38:59.491Z,102369.88
2022-12-19T06:41:46.849Z,102380.59
2022-12-19T06:44:17.448Z,102395.09
2022-12-19T06:46:45.361Z,102395.09
2022-12-19T06:49:13.387Z,102396.72
2022-12-19T06:51:41.172Z,102390.88
2022-12-19T06:54:13.130Z,102392.03
2022-12-19T06:56:43.261Z,102388.94
2022-12-19T06:59:16.508Z,102392.16
2022-12-19T07:02:13.535Z,102391.72
2022-12-19T07:04:55.511Z,102405.88
2022-12-19T07:07:23.764Z,102403.44
2022-12-19T07:09:51.860Z,102398.41
2022-12-19T07:12:19.402Z,102404.03
2022-12-19T07:14:52.985Z,102404.19
2022-12-19T07:17:24.580Z,102403.13
2022-12-19T07:19:56.515Z,102406.59
2022-12-19T07:22:29.253Z,102403.13
2022-12-19T07:24:58.681Z,102394.53
2022-12-19T07:27:35.267Z,102389.00
2022-12-19T07:30:06.355Z,102383.28
2022-12-19T07:32:34.239Z,102366.47
2022-12-19T07:35:06.878Z,102380.16
2022-12-19T07:37:34.496Z,102367.28
2022-12-19T07:40:03.056Z,102368.22
2022-12-19T07:42:32.857Z,102364.41
2022-12-19T07:45:01.692Z,102372.03
2022-12-19T07:47:29.384Z,102375.97
2022-12-19T07:49:57.500Z,102369.72
2022-12-19T07:52:25.227Z,102363.88
2022-12-19T07:54:53.531Z,102372.94
2022-12-19T07:57:21.414Z,102367.78
2022-12-19T07:59:49.307Z,102365.94
2022-12-19T08:02:16.828Z,102359.81
2022-12-19T08:04:44.884Z,102358.94
2022-12-19T08:07:12.873Z,102354.63
2022-12-19T08:09:40.750Z,102365.50
2022-12-19T08:12:08.587Z,102368.66
2022-12-19T08:14:36.554Z,102374.78
2022-12-19T08:17:20.077Z,102384.00
2022-12-19T08:19:49.399Z,102393.47
2022-12-19T08:22:16.919Z,102399.56
2022-12-19T08:24:44.793Z,102392.34
2022-12-19T08:27:12.352Z,102397.09
2022-12-19T08:29:40.210Z,102388.31
2022-12-19T08:32:07.864Z,102393.94
2022-12-19T08:34:35.913Z,102390.41
2022-12-19T08:37:03.426Z,102395.63
2022-12-19T08:39:31.248Z,102400.06
2022-12-19T08:41:58.902Z,102387.81
2022-12-19T08:44:27.425Z,102389.75
2022-12-19T08:46:55.099Z,102395.88
2022-12-19T08:49:23.017Z,102374.88
2022-12-19T08:51:50.565Z,102376.78
2022-12-19T08:54:18.449Z,102380.56
2022-12-19T08:56:47.146Z,102371.03
2022-12-19T08:59:30.627Z,102378.25
2022-12-19T09:02:02.780Z,102371.09
2022-12-19T09:06:01.588Z,102365.72
2022-12-19T09:07:21.571Z,102357.19
2022-12-19T09:09:49.424Z,102355.00
2022-12-19T09:12:17.311Z,102353.69
2022-12-19T09:14:45.252Z,102357.75
2022-12-19T09:17:13.401Z,102342.94
2022-12-19T09:19:44.142Z,102337.38
2022-12-19T09:22:15.548Z,102336.19
2022-12-19T09:24:43.795Z,102351.13
2022-12-19T09:27:11.346Z,102360.78
2022-12-19T09:29:39.589Z,102365.13
2022-12-19T09:32:07.459Z,102365.78
2022-12-19T09:34:37.695Z,102356.91
2022-12-19T09:37:15.995Z,102351.72
2022-12-19T09:39:46.428Z,102337.34
2022-12-19T09:42:41.777Z,102336.47
2022-12-19T09:45:33.916Z,102331.78
2022-12-19T09:48:02.951Z,102336.38
2022-12-19T09:51:10.519Z,102325.28
2022-12-19T09:54:23.531Z,102330.44
2022-12-19T09:56:59.855Z,102324.38
2022-12-19T09:59:49.621Z,102306.84
2022-12-19T10:02:49.437Z,102289.88
2022-12-19T10:07:11.921Z,102297.38
2022-12-19T10:08:50.008Z,102308.81
2022-12-19T10:12:39.024Z,102305.94
2022-12-19T10:15:59.006Z,102307.28
2022-12-19T10:19:19.816Z,102310.53
2022-12-19T10:22:19.236Z,102299.38
2022-12-19T10:25:14.895Z,102296.75
2022-12-19T10:28:11.558Z,102284.81
2022-12-19T10:30:53.994Z,102284.31
2022-12-19T10:33:34.300Z,102278.50
2022-12-19T10:36:03.193Z,102281.75
2022-12-19T10:39:06.400Z,102289.81
2022-12-19T10:41:42.265Z,102282.84
2022-12-19T10:44:13.895Z,102291.38
2022-12-19T10:46:47.704Z,102281.28
2022-12-19T10:49:18.121Z,102287.22
2022-12-19T10:52:01.951Z,102275.47
2022-12-19T10:54:44.092Z,102273.34
2022-12-19T10:57:27.398Z,102262.19
2022-12-19T11:00:18.058Z,102263.81
2022-12-19T11:02:49.529Z,102253.94
2022-12-19T11:05:39.240Z,102239.84
2022-12-19T11:08:06.688Z,102240.94
2022-12-19T11:11:32.571Z,102232.97
2022-12-19T11:18:57.068Z,102242.56
2022-12-19T11:24:46.186Z,102240.94
2022-12-19T11:29:15.463Z,102226.50
2022-12-19T11:29:43.287Z,102236.63
2022-12-19T11:30:35.805Z,102229.44
2022-12-19T11:30:37.982Z,102237.69
2022-12-19T11:34:24.836Z,102217.47
2022-12-19T11:37:00.442Z,102221.25
2022-12-19T11:40:03.375Z,102223.66
2022-12-19T11:43:43.151Z,102218.59
2022-12-19T11:46:26.099Z,102226.06
2022-12-19T11:49:11.427Z,102237.28
2022-12-19T11:51:48.053Z,102233.63
2022-12-19T11:54:24.423Z,102236.88
2022-12-19T11:56:53.190Z,102239.06
2022-12-19T11:59:31.744Z,102239.63
2022-12-19T12:02:30.760Z,102239.91
2022-12-19T12:05:28.483Z,102247.13
2022-12-19T12:10:30.302Z,102246.56
2022-12-19T12:19:47.703Z,102242.84
2022-12-19T12:24:05.114Z,102232.69
2022-12-19T12:28:59.747Z,102207.38
2022-12-19T12:31:05.047Z,102196.41
2022-12-19T12:31:06.542Z,102199.09
2022-12-19T12:31:45.688Z,102178.00
2022-12-19T12:31:56.216Z,102181.97
2022-12-19T12:35:29.220Z,102180.94
2022-12-19T12:37:47.586Z,102185.72
2022-12-19T12:39:31.537Z,102186.00
2022-12-19T12:42:27.520Z,102190.53
2022-12-19T12:44:59.307Z,102191.88
2022-12-19T12:47:29.081Z,102195.88
2022-12-19T12:50:06.138Z,102199.09
2022-12-19T12:52:40.451Z,102192.16
2022-12-19T12:55:37.457Z,102184.16
2022-12-19T12:58:09.099Z,102183.38
2022-12-19T13:00:40.482Z,102183.91
2022-12-19T13:03:28.105Z,102179.88
2022-12-19T13:06:21.013Z,102181.22
2022-12-19T13:08:52.093Z,102168.94
2022-12-19T13:11:38.755Z,102162.81
2022-12-19T13:14:35.774Z,102159.88
2022-12-19T13:17:06.553Z,102162.53
2022-12-19T13:20:04.209Z,102154.25
2022-12-19T13:22:32.406Z,102153.19
2022-12-19T13:25:01.081Z,102148.41
2022-12-19T13:27:39.993Z,102159.84
2022-12-19T13:30:08.083Z,102156.91
2022-12-19T13:32:42.529Z,102154.25
2022-12-19T13:36:41.185Z,102156.06
2022-12-19T13:39:54.293Z,102156.63
2022-12-19T13:41:58.054Z,102161.66
2022-12-19T13:44:27.436Z,102155.75
2022-12-19T13:46:56.444Z,102148.84
2022-12-19T13:49:35.013Z,102148.84
2022-12-19T13:52:05.207Z,102156.28
2022-12-19T13:54:47.691Z,102149.59
2022-12-19T13:57:30.142Z,102157.84
2022-12-19T14:00:09.009Z,102152.50
2022-12-19T14:02:47.212Z,102155.13
2022-12-19T14:06:16.140Z,102147.09
2022-12-19T14:08:25.459Z,102136.97
2022-12-19T14:11:36.979Z,102128.13
2022-12-19T14:14:17.744Z,102143.56
2022-12-19T14:16:50.550Z,102142.69
2022-12-19T14:19:30.995Z,102130.44
2022-12-19T14:22:24.810Z,102132.31
2022-12-19T14:25:10.081Z,102134.13
2022-12-19T14:28:24.584Z,102143.94
2022-12-19T14:31:09.414Z,102143.66
2022-12-19T14:34:35.809Z,102141.50
2022-12-19T14:36:38.722Z,102139.31
2022-12-19T14:39:27.738Z,102143.78
2022-12-19T14:43:59.462Z,102136.00
2022-12-19T14:52:35.611Z,102130.88
2022-12-19T14:54:11.539Z,102132.06
2022-12-19T14:54:27.382Z,102128.25
2022-12-19T14:57:25.298Z,102123.84
2022-12-19T15:00:50.667Z,102117.16
2022-12-19T15:03:32.069Z,102121.63
2022-12-19T15:07:07.603Z,102128.97
2022-12-19T15:11:07.922Z,102117.28
2022-12-19T15:14:51.282Z,102105.09
2022-12-19T15:16:00.545Z,102113.69
2022-12-19T15:18:39.946Z,102098.28
2022-12-19T15:21:13.203Z,102091.91
2022-12-19T15:23:43.583Z,102093.81
2022-12-19T15:26:17.970Z,102084.53
2022-12-19T15:28:52.909Z,102086.13
2022-12-19T15:31:42.640Z,102085.09
2022-12-19T15:34:38.015Z,102082.44
2022-12-19T15:37:12.481Z,102089.31
2022-12-19T15:39:42.350Z,102094.66
2022-12-19T15:42:23.665Z,102089.66
2022-12-19T15:44:53.906Z,102078.28
2022-12-19T15:47:35.819Z,102087.63
2022-12-19T15:50:16.856Z,102088.88
2022-12-19T15:52:45.129Z,102090.34
2022-12-19T15:55:22.766Z,102091.56
2022-12-19T15:58:06.429Z,102097.03
2022-12-19T16:00:36.398Z,102087.66
2022-12-19T16:06:14.183Z,102088.19
2022-12-19T16:08:43.060Z,102078.81
2022-12-19T16:11:24.857Z,102080.91
2022-12-19T16:13:58.029Z,102078.19
2022-12-19T16:16:25.551Z,102079.50
2022-12-19T16:18:53.462Z,102081.59
2022-12-19T16:21:33.641Z,102087.41
2022-12-19T16:24:02.178Z,102098.75
2022-12-19T16:26:37.145Z,102100.78
2022-12-19T16:29:06.647Z,102093.56
2022-12-19T16:31:34.332Z,102100.97
2022-12-19T16:34:02.505Z,102094.88
2022-12-19T16:36:30.088Z,102096.97
2022-12-19T16:38:58.000Z,102088.50
2022-12-19T16:41:26.155Z,102088.25
2022-12-19T16:43:54.206Z,102082.69
2022-12-19T16:46:23.965Z,102089.88
2022-12-19T16:48:52.139Z,102080.59
2022-12-19T16:51:23.557Z,102085.03
2022-12-19T16:53:54.232Z,102090.03
2022-12-19T16:56:35.893Z,102074.59
2022-12-19T16:59:12.788Z,102072.19
2022-12-19T17:01:41.559Z,102073.03
2022-12-19T17:04:14.938Z,102066.34
2022-12-19T17:06:43.632Z,102068.44
2022-12-19T17:09:22.263Z,102062.66
2022-12-19T17:11:58.088Z,102062.97
2022-12-19T17:14:30.521Z,102047.88
2022-12-19T17:16:59.519Z,102048.97
2022-12-19T17:19:36.260Z,102052.66
2022-12-19T17:22:10.357Z,102054.69
2022-12-19T17:24:39.071Z,102052.75
2022-12-19T17:27:06.792Z,102058.56
2022-12-19T17:29:34.872Z,102053.50
2022-12-19T17:32:03.600Z,102055.84
2022-12-19T17:34:33.508Z,102057.16
2022-12-19T17:37:04.644Z,102059.22
2022-12-19T17:39:35.243Z,102058.66
2022-12-19T17:42:21.748Z,102055.38
2022-12-19T17:44:49.718Z,102039.72
2022-12-19T17:47:20.800Z,102036.50
2022-12-19T17:49:49.093Z,102037.31
2022-12-19T17:52:19.878Z,102034.16
2022-12-19T17:54:48.075Z,102032.06
2022-12-19T17:57:17.922Z,102023.56
2022-12-19T17:59:46.783Z,102013.75
2022-12-19T18:02:26.416Z,102018.25
2022-12-19T18:04:55.247Z,102025.41
2022-12-19T18:07:22.895Z,102025.66
2022-12-19T18:09:50.728Z,102024.59
2022-12-19T18:12:18.245Z,102023.56
2022-12-19T18:14:46.179Z,102033.63
2022-12-19T18:17:22.664Z,102030.66
2022-12-19T18:19:50.759Z,102034.03
2022-12-19T18:22:18.642Z,102027.09
2022-12-19T18:24:46.643Z,102030.28
2022-12-19T18:27:14.182Z,102027.63
2022-12-19T18:29:42.064Z,102032.94
2022-12-19T18:32:20.048Z,102031.06
2022-12-19T18:34:49.153Z,102027.09
2022-12-19T18:37:17.332Z,102028.09
2022-12-19T18:39:45.295Z,102028.03
2022-12-19T18:42:22.491Z,102015.56
2022-12-19T18:44:50.949Z,102024.06
2022-12-19T18:47:23.453Z,102022.25
2022-12-19T18:49:52.313Z,102009.69
2022-12-19T18:52:19.903Z,102009.91
2022-12-19T18:54:47.868Z,102017.25
2022-12-19T18:57:16.511Z,102005.38
2022-12-19T18:59:45.734Z,101999.09
2022-12-19T19:02:27.338Z,102006.44
2022-12-19T19:04:56.184Z,101991.38
2022-12-19T19:07:23.744Z,101996.00
2022-12-19T19:09:51.724Z,101997.44
2022-12-19T19:12:36.850Z,102013.72
2022-12-19T19:15:05.531Z,101999.25
2022-12-19T19:17:43.064Z,102006.22
2022-12-19T19:20:14.517Z,102016.53
2022-12-19T19:22:42.535Z,102003.69
2022-12-19T19:25:10.927Z,102010.56
2022-12-19T19:27:40.013Z,102019.00
2022-12-19T19:30:09.980Z,102012.59
2022-12-19T19:32:42.998Z,102004.88
2022-12-19T19:35:12.570Z,101995.47
2022-12-19T19:37:41.642Z,101991.72
2022-12-19T19:40:10.411Z,102006.03
2022-12-19T19:42:38.387Z,102006.53
2022-12-19T19:45:07.398Z,102021.56
2022-12-19T19:47:38.118Z,102021.00
2022-12-19T19:50:07.870Z,102031.31
2022-12-19T19:52:35.423Z,102028.66
2022-12-19T19:55:03.485Z,102030.28
2022-12-19T19:57:31.115Z,102022.81
2022-12-19T19:59:59.926Z,102039.19
2022-12-19T20:02:27.552Z,102030.44
2022-12-19T20:04:55.549Z,102029.88
2022-12-19T20:07:23.160Z,102022.72
2022-12-19T20:09:51.172Z,102030.69
2022-12-19T20:12:19.672Z,102023.28
2022-12-19T20:14:47.827Z,102017.97
2022-12-19T20:17:15.483Z,102015.88
2022-12-19T20:19:43.685Z,102027.78
2022-12-19T20:22:11.311Z,102025.69
2022-12-19T20:24:39.225Z,102025.94
2022-12-19T20:27:07.047Z,102021.66
2022-12-19T20:29:35.043Z,102020.31
2022-12-19T20:32:04.414Z,102012.53
2022-12-19T20:34:33.204Z,102015.72
2022-12-19T20:37:00.792Z,102016.81
2022-12-19T20:39:28.775Z,102023.13
2022-12-19T20:41:56.314Z,102020.25
2022-12-19T20:44:24.833Z,102021.88
2022-12-19T20:46:53.469Z,102032.19
2022-12-19T20:49:23.327Z,102033.25
2022-12-19T20:51:50.722Z,102033.25
2022-12-19T20:54:18.892Z,102030.84
2022-12-19T20:56:46.976Z,102039.03
2022-12-19T20:59:15.271Z,102033.75
2022-12-19T21:01:43.151Z,102029.00
2022-12-19T21:04:11.342Z,102037.50
2022-12-19T21:06:39.524Z,102027.97
2022-12-19T21:09:10.486Z,102031.31
2022-12-19T21:11:38.289Z,102021.78
2022-12-19T21:14:07.969Z,102031.81
2022-12-19T21:16:37.049Z,102026.50
2022-12-19T21:19:05.473Z,102027.25
2022-12-19T21:21:33.226Z,102023.53
2022-12-19T21:24:02.290Z,102022.03
2022-12-19T21:26:30.521Z,102018.78
2022-12-19T21:28:59.369Z,102011.34
2022-12-19T21:31:30.514Z,102007.09
2022-12-19T21:34:01.213Z,102006.34
2022-12-19T21:36:30.538Z,102000.19
2022-12-19T21:39:01.973Z,101998.22
2022-12-19T21:41:30.853Z,101998.94
2022-12-19T21:44:00.568Z,102002.09
2022-12-19T21:46:33.210Z,101989.66
2022-12-19T21:49:03.345Z,102003.06
2022-12-19T21:51:32.245Z,101991.34
2022-12-19T21:54:02.823Z,101995.03
2022-12-19T21:56:39.437Z,101991.72
2022-12-19T21:59:16.134Z,101991.72
2022-12-19T22:01:45.396Z,101993.34
2022-12-19T22:04:21.047Z,101992.22
2022-12-19T22:06:50.722Z,101992.13
2022-12-19T22:09:25.163Z,102000.38
2022-12-19T22:11:52.844Z,102000.03
2022-12-19T22:14:21.032Z,101992.44
2022-12-19T22:16:49.403Z,101991.72
2022-12-19T22:19:19.604Z,101992.59
2022-12-19T22:21:48.194Z,101985.00
2022-12-19T22:24:17.511Z,101980.88
2022-12-19T22:26:45.292Z,101985.31
2022-12-19T22:29:16.767Z,101983.56
2022-12-19T22:31:45.934Z,101971.88
2022-12-19T22:34:18.015Z,101970.72
2022-12-19T22:36:47.642Z,101971.72
2022-12-19T22:39:20.592Z,101990.53
2022-12-19T22:41:49.993Z,101975.81
2022-12-19T22:44:24.144Z,101971.25
2022-12-19T22:46:52.531Z,101971.44
2022-12-19T22:49:20.812Z,101980.66
2022-12-19T22:51:49.326Z,101982.03
2022-12-19T22:54:17.336Z,101987.81
2022-12-19T22:56:45.041Z,101976.09
2022-12-19T22:59:13.324Z,101982.94
2022-12-19T23:01:43.696Z,101980.28
2022-12-19T23:04:15.436Z,101988.22
2022-12-19T23:06:43.789Z,101984.53
2022-12-19T23:09:18.660Z,101985.56
2022-12-19T23:11:50.339Z,101976.00
2022-12-19T23:14:21.164Z,101982.38
2022-12-19T23:16:52.105Z,101982.84
2022-12-19T23:19:23.417Z,101979.72
2022-12-19T23:21:56.085Z,101975.53
2022-12-19T23:24:24.927Z,101978.41
2022-12-19T23:26:53.875Z,101980.28
2022-12-19T23:29:21.805Z,101976.00
2022-12-19T23:31:49.405Z,101980.75
2022-12-19T23:34:18.157Z,101955.56
2022-12-19T23:39:35.046Z,101944.66
2022-12-19T23:42:02.675Z,101933.22
2022-12-19T23:44:30.945Z,101928.25
2022-12-19T23:47:02.912Z,101927.75
2022-12-19T23:49:33.671Z,101915.31
2022-12-19T23:52:01.350Z,101919.81
2022-12-19T23:54:29.575Z,101919.75
2022-12-19T23:56:57.165Z,101916.53
2022-12-19T23:59:25.201Z,101921.84
